sensor_id;sensor_type;location;lat;lon;timestamp;temperature;humidity
17495;DHT22;8864;51.970;4.614;2022-08-03T00:02:14;25.80;67.80
17495;DHT22;8864;51.970;4.614;2022-08-03T00:04:41;25.80;67.80
17495;DHT22;8864;51.970;4.614;2022-08-03T00:07:08;25.70;67.70
17495;DHT22;8864;51.970;4.614;2022-08-03T00:09:34;25.80;67.80
17495;DHT22;8864;51.970;4.614;2022-08-03T00:12:01;25.80;67.90
17495;DHT22;8864;51.970;4.614;2022-08-03T00:14:28;25.80;68.20
17495;DHT22;8864;51.970;4.614;2022-08-03T00:16:56;25.80;68.00
17495;DHT22;8864;51.970;4.614;2022-08-03T00:19:23;25.80;68.10
17495;DHT22;8864;51.970;4.614;2022-08-03T00:21:50;25.80;68.20
17495;DHT22;8864;51.970;4.614;2022-08-03T00:24:16;25.80;68.10
17495;DHT22;8864;51.970;4.614;2022-08-03T00:26:43;25.70;68.20
17495;DHT22;8864;51.970;4.614;2022-08-03T00:29:10;25.80;68.30
17495;DHT22;8864;51.970;4.614;2022-08-03T00:31:37;25.80;68.60
17495;DHT22;8864;51.970;4.614;2022-08-03T00:34:05;25.80;68.40
17495;DHT22;8864;51.970;4.614;2022-08-03T00:36:32;25.80;68.50
17495;DHT22;8864;51.970;4.614;2022-08-03T00:38:58;25.80;68.40
17495;DHT22;8864;51.970;4.614;2022-08-03T00:41:25;25.80;68.50
17495;DHT22;8864;51.970;4.614;2022-08-03T00:43:52;25.70;68.60
17495;DHT22;8864;51.970;4.614;2022-08-03T00:46:19;25.70;68.90
17495;DHT22;8864;51.970;4.614;2022-08-03T00:48:46;25.70;69.00
17495;DHT22;8864;51.970;4.614;2022-08-03T00:51:15;25.70;68.80
17495;DHT22;8864;51.970;4.614;2022-08-03T00:53:42;25.70;68.80
17495;DHT22;8864;51.970;4.614;2022-08-03T00:56:12;25.70;69.00
17495;DHT22;8864;51.970;4.614;2022-08-03T00:58:39;25.70;69.30
17495;DHT22;8864;51.970;4.614;2022-08-03T01:01:06;25.70;69.40
17495;DHT22;8864;51.970;4.614;2022-08-03T01:03:33;25.70;69.50
17495;DHT22;8864;51.970;4.614;2022-08-03T01:06:06;25.70;69.40
17495;DHT22;8864;51.970;4.614;2022-08-03T01:08:41;25.60;69.30
17495;DHT22;8864;51.970;4.614;2022-08-03T01:11:16;25.60;69.50
17495;DHT22;8864;51.970;4.614;2022-08-03T01:13:52;25.60;69.40
17495;DHT22;8864;51.970;4.614;2022-08-03T01:16:27;25.60;69.40
17495;DHT22;8864;51.970;4.614;2022-08-03T01:19:00;25.60;69.40
17495;DHT22;8864;51.970;4.614;2022-08-03T01:21:31;25.60;69.40
17495;DHT22;8864;51.970;4.614;2022-08-03T01:24:09;25.60;69.30
17495;DHT22;8864;51.970;4.614;2022-08-03T01:26:51;25.60;69.30
17495;DHT22;8864;51.970;4.614;2022-08-03T01:32:34;25.60;69.40
17495;DHT22;8864;51.970;4.614;2022-08-03T01:35:05;25.60;69.60
17495;DHT22;8864;51.970;4.614;2022-08-03T01:37:38;25.60;69.80
17495;DHT22;8864;51.970;4.614;2022-08-03T01:40:08;25.60;69.60
17495;DHT22;8864;51.970;4.614;2022-08-03T01:42:37;25.60;69.80
17495;DHT22;8864;51.970;4.614;2022-08-03T01:45:07;25.60;70.00
17495;DHT22;8864;51.970;4.614;2022-08-03T01:47:37;25.60;69.90
17495;DHT22;8864;51.970;4.614;2022-08-03T01:50:06;25.60;69.70
17495;DHT22;8864;51.970;4.614;2022-08-03T01:52:37;25.60;69.70
17495;DHT22;8864;51.970;4.614;2022-08-03T01:55:06;25.60;69.90
17495;DHT22;8864;51.970;4.614;2022-08-03T01:57:34;25.50;70.00
17495;DHT22;8864;51.970;4.614;2022-08-03T02:00:03;25.60;69.90
17495;DHT22;8864;51.970;4.614;2022-08-03T02:02:35;25.60;69.90
17495;DHT22;8864;51.970;4.614;2022-08-03T02:05:06;25.50;69.90
17495;DHT22;8864;51.970;4.614;2022-08-03T02:07:34;25.50;69.80
17495;DHT22;8864;51.970;4.614;2022-08-03T02:10:03;25.50;69.80
17495;DHT22;8864;51.970;4.614;2022-08-03T02:12:31;25.50;69.80
17495;DHT22;8864;51.970;4.614;2022-08-03T02:15:00;25.50;69.80
17495;DHT22;8864;51.970;4.614;2022-08-03T02:17:28;25.50;69.80
17495;DHT22;8864;51.970;4.614;2022-08-03T02:19:58;25.50;69.70
17495;DHT22;8864;51.970;4.614;2022-08-03T02:22:26;25.50;69.80
17495;DHT22;8864;51.970;4.614;2022-08-03T02:24:54;25.50;69.60
17495;DHT22;8864;51.970;4.614;2022-08-03T02:27:23;25.50;69.60
17495;DHT22;8864;51.970;4.614;2022-08-03T02:29:52;25.50;69.60
17495;DHT22;8864;51.970;4.614;2022-08-03T02:32:23;25.50;69.60
17495;DHT22;8864;51.970;4.614;2022-08-03T02:34:54;25.50;69.60
17495;DHT22;8864;51.970;4.614;2022-08-03T02:37:25;25.50;69.50
17495;DHT22;8864;51.970;4.614;2022-08-03T02:39:58;25.50;69.50
17495;DHT22;8864;51.970;4.614;2022-08-03T02:42:27;25.50;69.50
17495;DHT22;8864;51.970;4.614;2022-08-03T02:44:57;25.50;69.50
17495;DHT22;8864;51.970;4.614;2022-08-03T02:47:26;25.40;69.60
17495;DHT22;8864;51.970;4.614;2022-08-03T02:49:53;25.50;69.80
17495;DHT22;8864;51.970;4.614;2022-08-03T02:52:25;25.40;69.80
17495;DHT22;8864;51.970;4.614;2022-08-03T02:54:55;25.40;69.90
17495;DHT22;8864;51.970;4.614;2022-08-03T02:57:24;25.40;69.80
17495;DHT22;8864;51.970;4.614;2022-08-03T02:59:53;25.40;69.80
17495;DHT22;8864;51.970;4.614;2022-08-03T03:02:21;25.40;69.90
17495;DHT22;8864;51.970;4.614;2022-08-03T03:04:50;25.40;69.80
17495;DHT22;8864;51.970;4.614;2022-08-03T03:07:18;25.40;69.80
17495;DHT22;8864;51.970;4.614;2022-08-03T03:09:47;25.50;69.90
17495;DHT22;8864;51.970;4.614;2022-08-03T03:12:15;25.40;69.70
17495;DHT22;8864;51.970;4.614;2022-08-03T03:14:42;25.40;69.80
17495;DHT22;8864;51.970;4.614;2022-08-03T03:17:10;25.40;69.70
17495;DHT22;8864;51.970;4.614;2022-08-03T03:19:38;25.40;69.70
17495;DHT22;8864;51.970;4.614;2022-08-03T03:22:06;25.40;69.70
17495;DHT22;8864;51.970;4.614;2022-08-03T03:24:35;25.40;69.50
17495;DHT22;8864;51.970;4.614;2022-08-03T03:27:03;25.40;69.50
17495;DHT22;8864;51.970;4.614;2022-08-03T03:29:31;25.40;69.60
17495;DHT22;8864;51.970;4.614;2022-08-03T03:32:00;25.40;69.60
17495;DHT22;8864;51.970;4.614;2022-08-03T03:34:28;25.40;69.60
17495;DHT22;8864;51.970;4.614;2022-08-03T03:36:55;25.40;69.60
17495;DHT22;8864;51.970;4.614;2022-08-03T03:39:22;25.40;69.60
17495;DHT22;8864;51.970;4.614;2022-08-03T03:41:49;25.30;69.60
17495;DHT22;8864;51.970;4.614;2022-08-03T03:44:18;25.30;69.60
17495;DHT22;8864;51.970;4.614;2022-08-03T03:46:44;25.30;69.70
17495;DHT22;8864;51.970;4.614;2022-08-03T03:49:11;25.30;69.70
17495;DHT22;8864;51.970;4.614;2022-08-03T03:51:38;25.30;69.70
17495;DHT22;8864;51.970;4.614;2022-08-03T03:54:05;25.30;69.90
17495;DHT22;8864;51.970;4.614;2022-08-03T03:56:32;25.30;70.00
17495;DHT22;8864;51.970;4.614;2022-08-03T03:58:59;25.30;70.00
17495;DHT22;8864;51.970;4.614;2022-08-03T04:01:27;25.30;70.00
17495;DHT22;8864;51.970;4.614;2022-08-03T04:03:54;25.30;70.10
17495;DHT22;8864;51.970;4.614;2022-08-03T04:06:21;25.20;70.80
17495;DHT22;8864;51.970;4.614;2022-08-03T04:09:06;25.20;70.00
17495;DHT22;8864;51.970;4.614;2022-08-03T04:11:53;25.20;70.00
17495;DHT22;8864;51.970;4.614;2022-08-03T04:14:23;25.20;70.00
17495;DHT22;8864;51.970;4.614;2022-08-03T04:16:55;25.20;70.00
17495;DHT22;8864;51.970;4.614;2022-08-03T04:19:27;25.20;70.10
17495;DHT22;8864;51.970;4.614;2022-08-03T04:21:58;25.20;70.10
17495;DHT22;8864;51.970;4.614;2022-08-03T04:24:29;25.20;70.00
17495;DHT22;8864;51.970;4.614;2022-08-03T04:26:58;25.20;70.20
17495;DHT22;8864;51.970;4.614;2022-08-03T04:29:28;25.20;70.20
17495;DHT22;8864;51.970;4.614;2022-08-03T04:31:59;25.20;70.20
17495;DHT22;8864;51.970;4.614;2022-08-03T04:34:27;25.20;70.20
17495;DHT22;8864;51.970;4.614;2022-08-03T04:36:58;25.10;70.30
17495;DHT22;8864;51.970;4.614;2022-08-03T04:39:27;25.20;70.30
17495;DHT22;8864;51.970;4.614;2022-08-03T04:41:58;25.20;70.40
17495;DHT22;8864;51.970;4.614;2022-08-03T04:44:28;25.20;70.30
17495;DHT22;8864;51.970;4.614;2022-08-03T04:46:57;25.10;70.30
17495;DHT22;8864;51.970;4.614;2022-08-03T04:49:25;25.20;70.40
17495;DHT22;8864;51.970;4.614;2022-08-03T04:51:52;25.20;70.60
17495;DHT22;8864;51.970;4.614;2022-08-03T04:54:19;25.10;70.60
17495;DHT22;8864;51.970;4.614;2022-08-03T04:56:46;25.10;70.50
17495;DHT22;8864;51.970;4.614;2022-08-03T04:59:13;25.10;70.60
17495;DHT22;8864;51.970;4.614;2022-08-03T05:01:42;25.10;70.60
17495;DHT22;8864;51.970;4.614;2022-08-03T05:04:10;25.10;70.50
17495;DHT22;8864;51.970;4.614;2022-08-03T05:06:37;25.10;70.70
17495;DHT22;8864;51.970;4.614;2022-08-03T05:09:04;25.10;70.70
17495;DHT22;8864;51.970;4.614;2022-08-03T05:11:31;25.10;70.70
17495;DHT22;8864;51.970;4.614;2022-08-03T05:13:58;25.20;70.90
17495;DHT22;8864;51.970;4.614;2022-08-03T05:16:25;25.10;70.80
17495;DHT22;8864;51.970;4.614;2022-08-03T05:18:52;25.10;70.70
17495;DHT22;8864;51.970;4.614;2022-08-03T05:21:20;25.10;70.80
17495;DHT22;8864;51.970;4.614;2022-08-03T05:23:46;25.10;70.90
17495;DHT22;8864;51.970;4.614;2022-08-03T05:26:13;25.10;71.00
17495;DHT22;8864;51.970;4.614;2022-08-03T05:28:41;25.10;71.10
17495;DHT22;8864;51.970;4.614;2022-08-03T05:31:07;25.20;71.20
17495;DHT22;8864;51.970;4.614;2022-08-03T05:33:34;25.20;71.30
17495;DHT22;8864;51.970;4.614;2022-08-03T05:36:01;25.10;71.20
17495;DHT22;8864;51.970;4.614;2022-08-03T05:38:30;25.10;71.20
17495;DHT22;8864;51.970;4.614;2022-08-03T05:40:57;25.10;71.20
17495;DHT22;8864;51.970;4.614;2022-08-03T05:43:24;25.10;71.20
17495;DHT22;8864;51.970;4.614;2022-08-03T05:45:51;25.10;71.30
17495;DHT22;8864;51.970;4.614;2022-08-03T05:48:17;25.10;71.30
17495;DHT22;8864;51.970;4.614;2022-08-03T05:50:44;25.10;71.40
17495;DHT22;8864;51.970;4.614;2022-08-03T05:53:11;25.10;71.50
17495;DHT22;8864;51.970;4.614;2022-08-03T05:55:39;25.10;71.60
17495;DHT22;8864;51.970;4.614;2022-08-03T05:58:06;25.00;71.80
17495;DHT22;8864;51.970;4.614;2022-08-03T06:00:33;25.10;72.60
17495;DHT22;8864;51.970;4.614;2022-08-03T06:02:59;25.10;71.80
17495;DHT22;8864;51.970;4.614;2022-08-03T06:05:27;25.10;72.00
17495;DHT22;8864;51.970;4.614;2022-08-03T06:07:54;25.10;72.00
17495;DHT22;8864;51.970;4.614;2022-08-03T06:10:20;25.10;71.90
17495;DHT22;8864;51.970;4.614;2022-08-03T06:12:51;25.10;72.00
17495;DHT22;8864;51.970;4.614;2022-08-03T06:15:18;25.10;72.20
17495;DHT22;8864;51.970;4.614;2022-08-03T06:17:46;25.10;72.10
17495;DHT22;8864;51.970;4.614;2022-08-03T06:20:14;25.10;72.40
17495;DHT22;8864;51.970;4.614;2022-08-03T06:22:41;25.10;72.50
17495;DHT22;8864;51.970;4.614;2022-08-03T06:25:09;25.10;72.50
17495;DHT22;8864;51.970;4.614;2022-08-03T06:27:35;25.10;72.40
17495;DHT22;8864;51.970;4.614;2022-08-03T06:30:08;25.10;72.40
17495;DHT22;8864;51.970;4.614;2022-08-03T06:32:35;25.10;72.50
17495;DHT22;8864;51.970;4.614;2022-08-03T06:35:02;25.10;72.60
17495;DHT22;8864;51.970;4.614;2022-08-03T06:37:29;25.10;72.60
17495;DHT22;8864;51.970;4.614;2022-08-03T06:39:56;25.10;72.60
17495;DHT22;8864;51.970;4.614;2022-08-03T06:42:23;25.10;72.70
17495;DHT22;8864;51.970;4.614;2022-08-03T06:44:49;25.10;72.60
17495;DHT22;8864;51.970;4.614;2022-08-03T06:47:18;25.10;72.60
17495;DHT22;8864;51.970;4.614;2022-08-03T06:49:45;25.10;72.60
17495;DHT22;8864;51.970;4.614;2022-08-03T06:52:11;25.10;72.50
17495;DHT22;8864;51.970;4.614;2022-08-03T06:54:38;25.10;72.60
17495;DHT22;8864;51.970;4.614;2022-08-03T06:57:05;25.10;72.60
17495;DHT22;8864;51.970;4.614;2022-08-03T06:59:34;25.20;72.60
17495;DHT22;8864;51.970;4.614;2022-08-03T07:02:00;25.10;72.60
17495;DHT22;8864;51.970;4.614;2022-08-03T07:04:29;25.20;72.80
17495;DHT22;8864;51.970;4.614;2022-08-03T07:06:55;25.20;72.70
17495;DHT22;8864;51.970;4.614;2022-08-03T07:09:22;25.20;72.80
17495;DHT22;8864;51.970;4.614;2022-08-03T07:11:51;25.20;72.80
17495;DHT22;8864;51.970;4.614;2022-08-03T07:14:17;25.20;72.60
17495;DHT22;8864;51.970;4.614;2022-08-03T07:16:44;25.20;72.50
17495;DHT22;8864;51.970;4.614;2022-08-03T07:19:11;25.20;72.60
17495;DHT22;8864;51.970;4.614;2022-08-03T07:21:39;25.20;72.60
17495;DHT22;8864;51.970;4.614;2022-08-03T07:24:08;25.20;72.50
17495;DHT22;8864;51.970;4.614;2022-08-03T07:26:35;25.20;72.50
17495;DHT22;8864;51.970;4.614;2022-08-03T07:29:02;25.20;72.40
17495;DHT22;8864;51.970;4.614;2022-08-03T07:31:29;25.20;72.50
17495;DHT22;8864;51.970;4.614;2022-08-03T07:33:55;25.20;72.40
17495;DHT22;8864;51.970;4.614;2022-08-03T07:36:22;25.20;72.30
17495;DHT22;8864;51.970;4.614;2022-08-03T07:38:51;25.20;72.30
17495;DHT22;8864;51.970;4.614;2022-08-03T07:41:18;25.20;72.30
17495;DHT22;8864;51.970;4.614;2022-08-03T07:43:45;25.20;72.20
17495;DHT22;8864;51.970;4.614;2022-08-03T07:46:12;25.20;72.20
17495;DHT22;8864;51.970;4.614;2022-08-03T07:48:39;25.20;72.20
17495;DHT22;8864;51.970;4.614;2022-08-03T07:51:07;25.20;72.20
17495;DHT22;8864;51.970;4.614;2022-08-03T07:53:34;25.20;72.20
17495;DHT22;8864;51.970;4.614;2022-08-03T07:56:02;25.20;72.30
17495;DHT22;8864;51.970;4.614;2022-08-03T07:58:29;25.20;72.20
17495;DHT22;8864;51.970;4.614;2022-08-03T08:00:55;25.20;72.30
17495;DHT22;8864;51.970;4.614;2022-08-03T08:03:22;25.20;72.20
17495;DHT22;8864;51.970;4.614;2022-08-03T08:05:51;25.20;72.20
17495;DHT22;8864;51.970;4.614;2022-08-03T08:08:18;25.20;72.20
17495;DHT22;8864;51.970;4.614;2022-08-03T08:10:45;25.20;72.30
17495;DHT22;8864;51.970;4.614;2022-08-03T08:13:13;25.20;72.30
17495;DHT22;8864;51.970;4.614;2022-08-03T08:15:40;25.10;72.10
17495;DHT22;8864;51.970;4.614;2022-08-03T08:18:07;25.20;72.30
17495;DHT22;8864;51.970;4.614;2022-08-03T08:20:34;25.10;72.40
17495;DHT22;8864;51.970;4.614;2022-08-03T08:23:03;25.10;72.30
17495;DHT22;8864;51.970;4.614;2022-08-03T08:25:31;25.10;72.30
17495;DHT22;8864;51.970;4.614;2022-08-03T08:27:59;25.10;72.30
17495;DHT22;8864;51.970;4.614;2022-08-03T08:30:29;25.20;72.40
17495;DHT22;8864;51.970;4.614;2022-08-03T08:32:56;25.10;72.30
17495;DHT22;8864;51.970;4.614;2022-08-03T08:35:23;25.20;72.30
17495;DHT22;8864;51.970;4.614;2022-08-03T08:37:50;25.20;73.10
17495;DHT22;8864;51.970;4.614;2022-08-03T08:40:19;25.20;72.40
17495;DHT22;8864;51.970;4.614;2022-08-03T08:42:46;25.20;72.50
17495;DHT22;8864;51.970;4.614;2022-08-03T08:45:13;25.20;72.40
17495;DHT22;8864;51.970;4.614;2022-08-03T08:47:44;25.20;72.40
17495;DHT22;8864;51.970;4.614;2022-08-03T08:50:12;25.20;72.30
17495;DHT22;8864;51.970;4.614;2022-08-03T08:52:40;25.20;72.20
17495;DHT22;8864;51.970;4.614;2022-08-03T08:55:09;25.20;72.20
17495;DHT22;8864;51.970;4.614;2022-08-03T08:57:38;25.20;72.20
17495;DHT22;8864;51.970;4.614;2022-08-03T09:00:09;25.20;72.20
17495;DHT22;8864;51.970;4.614;2022-08-03T09:02:38;25.20;72.10
17495;DHT22;8864;51.970;4.614;2022-08-03T09:05:11;25.20;72.20
17495;DHT22;8864;51.970;4.614;2022-08-03T09:07:38;25.20;72.00
17495;DHT22;8864;51.970;4.614;2022-08-03T09:10:07;25.20;72.20
17495;DHT22;8864;51.970;4.614;2022-08-03T09:12:37;25.20;72.00
17495;DHT22;8864;51.970;4.614;2022-08-03T09:15:18;25.20;72.10
17495;DHT22;8864;51.970;4.614;2022-08-03T09:17:45;25.30;72.00
17495;DHT22;8864;51.970;4.614;2022-08-03T09:20:14;25.30;72.20
17495;DHT22;8864;51.970;4.614;2022-08-03T09:22:52;25.30;72.40
17495;DHT22;8864;51.970;4.614;2022-08-03T09:25:26;25.30;72.80
17495;DHT22;8864;51.970;4.614;2022-08-03T09:27:54;25.30;72.50
17495;DHT22;8864;51.970;4.614;2022-08-03T09:30:22;25.30;72.40
17495;DHT22;8864;51.970;4.614;2022-08-03T09:32:49;25.30;72.20
17495;DHT22;8864;51.970;4.614;2022-08-03T09:35:25;25.30;72.30
17495;DHT22;8864;51.970;4.614;2022-08-03T09:38:11;25.30;72.30
17495;DHT22;8864;51.970;4.614;2022-08-03T09:40:38;25.30;71.90
17495;DHT22;8864;51.970;4.614;2022-08-03T09:43:06;25.40;72.20
17495;DHT22;8864;51.970;4.614;2022-08-03T09:45:33;25.40;72.20
17495;DHT22;8864;51.970;4.614;2022-08-03T09:48:22;25.40;72.10
17495;DHT22;8864;51.970;4.614;2022-08-03T09:50:52;25.40;71.80
17495;DHT22;8864;51.970;4.614;2022-08-03T09:53:19;25.40;71.60
17495;DHT22;8864;51.970;4.614;2022-08-03T09:55:50;25.40;71.50
17495;DHT22;8864;51.970;4.614;2022-08-03T09:58:19;25.40;71.30
17495;DHT22;8864;51.970;4.614;2022-08-03T10:00:57;25.40;71.30
17495;DHT22;8864;51.970;4.614;2022-08-03T10:03:26;25.40;71.00
17495;DHT22;8864;51.970;4.614;2022-08-03T10:05:54;25.50;71.00
17495;DHT22;8864;51.970;4.614;2022-08-03T10:08:21;25.40;70.90
17495;DHT22;8864;51.970;4.614;2022-08-03T10:10:49;25.50;70.90
17495;DHT22;8864;51.970;4.614;2022-08-03T10:13:19;25.50;70.70
17495;DHT22;8864;51.970;4.614;2022-08-03T10:15:47;25.50;70.70
17495;DHT22;8864;51.970;4.614;2022-08-03T10:18:13;25.50;70.70
17495;DHT22;8864;51.970;4.614;2022-08-03T10:20:45;25.60;70.60
17495;DHT22;8864;51.970;4.614;2022-08-03T10:23:16;25.60;70.30
17495;DHT22;8864;51.970;4.614;2022-08-03T10:25:46;25.60;70.20
17495;DHT22;8864;51.970;4.614;2022-08-03T10:28:16;25.60;70.20
17495;DHT22;8864;51.970;4.614;2022-08-03T10:30:47;25.60;70.20
17495;DHT22;8864;51.970;4.614;2022-08-03T10:33:17;25.60;70.20
17495;DHT22;8864;51.970;4.614;2022-08-03T10:35:46;25.60;70.20
17495;DHT22;8864;51.970;4.614;2022-08-03T10:38:18;25.70;69.90
17495;DHT22;8864;51.970;4.614;2022-08-03T10:40:46;25.70;69.90
17495;DHT22;8864;51.970;4.614;2022-08-03T10:43:18;25.70;69.90
17495;DHT22;8864;51.970;4.614;2022-08-03T10:45:45;25.70;69.70
17495;DHT22;8864;51.970;4.614;2022-08-03T10:48:12;25.70;69.60
17495;DHT22;8864;51.970;4.614;2022-08-03T10:50:41;25.80;69.60
17495;DHT22;8864;51.970;4.614;2022-08-03T10:53:08;25.80;69.40
17495;DHT22;8864;51.970;4.614;2022-08-03T10:55:38;25.80;69.30
17495;DHT22;8864;51.970;4.614;2022-08-03T10:58:48;25.80;69.00
17495;DHT22;8864;51.970;4.614;2022-08-03T11:01:19;25.80;68.90
17495;DHT22;8864;51.970;4.614;2022-08-03T11:04:16;25.80;68.60
17495;DHT22;8864;51.970;4.614;2022-08-03T11:06:44;25.90;68.70
17495;DHT22;8864;51.970;4.614;2022-08-03T11:09:16;25.90;68.70
17495;DHT22;8864;51.970;4.614;2022-08-03T11:11:46;25.90;68.70
17495;DHT22;8864;51.970;4.614;2022-08-03T11:14:15;25.90;68.30
17495;DHT22;8864;51.970;4.614;2022-08-03T11:16:45;25.90;67.70
17495;DHT22;8864;51.970;4.614;2022-08-03T11:19:13;26.00;67.60
17495;DHT22;8864;51.970;4.614;2022-08-03T11:21:54;26.00;67.30
17495;DHT22;8864;51.970;4.614;2022-08-03T11:24:58;26.00;67.40
17495;DHT22;8864;51.970;4.614;2022-08-03T11:27:30;26.00;67.40
17495;DHT22;8864;51.970;4.614;2022-08-03T11:30:00;26.00;67.40
17495;DHT22;8864;51.970;4.614;2022-08-03T11:32:50;26.00;67.30
17495;DHT22;8864;51.970;4.614;2022-08-03T11:35:18;26.00;67.30
17495;DHT22;8864;51.970;4.614;2022-08-03T11:38:03;26.00;67.20
17495;DHT22;8864;51.970;4.614;2022-08-03T11:40:38;26.00;67.30
17495;DHT22;8864;51.970;4.614;2022-08-03T11:43:08;26.00;67.20
17495;DHT22;8864;51.970;4.614;2022-08-03T11:45:36;26.10;67.30
17495;DHT22;8864;51.970;4.614;2022-08-03T11:48:13;26.00;67.30
17495;DHT22;8864;51.970;4.614;2022-08-03T11:50:41;26.10;67.40
17495;DHT22;8864;51.970;4.614;2022-08-03T11:53:13;26.10;67.30
17495;DHT22;8864;51.970;4.614;2022-08-03T11:55:40;26.10;67.30
17495;DHT22;8864;51.970;4.614;2022-08-03T11:58:16;26.10;67.20
17495;DHT22;8864;51.970;4.614;2022-08-03T12:00:43;26.10;67.10
17495;DHT22;8864;51.970;4.614;2022-08-03T12:03:11;26.10;67.10
17495;DHT22;8864;51.970;4.614;2022-08-03T12:05:44;26.20;67.00
17495;DHT22;8864;51.970;4.614;2022-08-03T12:08:12;26.10;66.80
17495;DHT22;8864;51.970;4.614;2022-08-03T12:10:44;26.20;66.90
17495;DHT22;8864;51.970;4.614;2022-08-03T12:13:12;26.20;66.90
17495;DHT22;8864;51.970;4.614;2022-08-03T12:15:40;26.20;66.90
17495;DHT22;8864;51.970;4.614;2022-08-03T12:18:15;26.20;67.00
17495;DHT22;8864;51.970;4.614;2022-08-03T12:20:43;26.20;66.90
17495;DHT22;8864;51.970;4.614;2022-08-03T12:23:10;26.20;67.00
17495;DHT22;8864;51.970;4.614;2022-08-03T12:25:39;26.30;67.00
17495;DHT22;8864;51.970;4.614;2022-08-03T12:28:09;26.20;66.90
17495;DHT22;8864;51.970;4.614;2022-08-03T12:30:37;26.30;66.90
17495;DHT22;8864;51.970;4.614;2022-08-03T12:33:20;26.30;67.00
17495;DHT22;8864;51.970;4.614;2022-08-03T12:35:49;26.30;66.90
17495;DHT22;8864;51.970;4.614;2022-08-03T12:38:21;26.30;66.90
17495;DHT22;8864;51.970;4.614;2022-08-03T12:40:58;26.40;66.90
17495;DHT22;8864;51.970;4.614;2022-08-03T12:43:25;26.40;66.70
17495;DHT22;8864;51.970;4.614;2022-08-03T12:46:13;26.40;66.60
17495;DHT22;8864;51.970;4.614;2022-08-03T12:49:06;26.40;66.60
17495;DHT22;8864;51.970;4.614;2022-08-03T12:51:34;26.40;66.60
17495;DHT22;8864;51.970;4.614;2022-08-03T12:54:03;26.40;66.50
17495;DHT22;8864;51.970;4.614;2022-08-03T12:56:29;26.40;66.60
17495;DHT22;8864;51.970;4.614;2022-08-03T12:58:56;26.40;66.50
17495;DHT22;8864;51.970;4.614;2022-08-03T13:01:23;26.40;66.50
17495;DHT22;8864;51.970;4.614;2022-08-03T13:03:52;26.50;66.50
17495;DHT22;8864;51.970;4.614;2022-08-03T13:06:22;26.50;66.40
17495;DHT22;8864;51.970;4.614;2022-08-03T13:09:00;26.50;66.40
17495;DHT22;8864;51.970;4.614;2022-08-03T13:11:27;26.50;66.40
17495;DHT22;8864;51.970;4.614;2022-08-03T13:13:54;26.60;66.30
17495;DHT22;8864;51.970;4.614;2022-08-03T13:16:21;26.60;66.30
17495;DHT22;8864;51.970;4.614;2022-08-03T13:18:49;26.60;66.30
17495;DHT22;8864;51.970;4.614;2022-08-03T13:21:18;26.60;66.10
17495;DHT22;8864;51.970;4.614;2022-08-03T13:23:46;26.60;66.00
17495;DHT22;8864;51.970;4.614;2022-08-03T13:26:14;26.60;66.00
17495;DHT22;8864;51.970;4.614;2022-08-03T13:28:40;26.60;65.80
17495;DHT22;8864;51.970;4.614;2022-08-03T13:31:07;26.60;65.50
17495;DHT22;8864;51.970;4.614;2022-08-03T13:33:34;26.70;65.60
17495;DHT22;8864;51.970;4.614;2022-08-03T13:36:01;26.70;65.20
17495;DHT22;8864;51.970;4.614;2022-08-03T13:38:28;26.70;65.20
17495;DHT22;8864;51.970;4.614;2022-08-03T13:40:56;26.80;65.30
17495;DHT22;8864;51.970;4.614;2022-08-03T13:43:23;26.80;65.10
17495;DHT22;8864;51.970;4.614;2022-08-03T13:45:50;26.80;65.00
17495;DHT22;8864;51.970;4.614;2022-08-03T13:48:16;26.80;64.90
17495;DHT22;8864;51.970;4.614;2022-08-03T13:50:43;26.80;64.80
17495;DHT22;8864;51.970;4.614;2022-08-03T13:53:10;26.80;64.80
17495;DHT22;8864;51.970;4.614;2022-08-03T13:55:37;26.80;64.80
17495;DHT22;8864;51.970;4.614;2022-08-03T13:58:05;26.80;64.80
17495;DHT22;8864;51.970;4.614;2022-08-03T14:00:36;26.80;64.60
17495;DHT22;8864;51.970;4.614;2022-08-03T14:03:04;26.80;64.80
17495;DHT22;8864;51.970;4.614;2022-08-03T14:05:32;26.90;64.70
17495;DHT22;8864;51.970;4.614;2022-08-03T14:07:59;26.90;64.70
17495;DHT22;8864;51.970;4.614;2022-08-03T14:10:26;26.90;64.60
17495;DHT22;8864;51.970;4.614;2022-08-03T14:12:53;26.90;64.60
17495;DHT22;8864;51.970;4.614;2022-08-03T14:15:22;26.90;64.60
17495;DHT22;8864;51.970;4.614;2022-08-03T14:17:51;26.90;64.70
17495;DHT22;8864;51.970;4.614;2022-08-03T14:20:17;26.90;64.60
17495;DHT22;8864;51.970;4.614;2022-08-03T14:22:44;26.90;64.50
17495;DHT22;8864;51.970;4.614;2022-08-03T14:25:11;27.00;64.60
17495;DHT22;8864;51.970;4.614;2022-08-03T14:27:38;27.00;64.60
17495;DHT22;8864;51.970;4.614;2022-08-03T14:30:05;27.00;64.60
17495;DHT22;8864;51.970;4.614;2022-08-03T14:32:34;27.00;64.50
17495;DHT22;8864;51.970;4.614;2022-08-03T14:35:00;27.00;64.40
17495;DHT22;8864;51.970;4.614;2022-08-03T14:37:27;27.00;64.30
17495;DHT22;8864;51.970;4.614;2022-08-03T14:39:54;27.10;64.40
17495;DHT22;8864;51.970;4.614;2022-08-03T14:42:21;27.00;64.40
17495;DHT22;8864;51.970;4.614;2022-08-03T14:44:48;27.10;64.30
17495;DHT22;8864;51.970;4.614;2022-08-03T14:47:15;27.10;64.20
17495;DHT22;8864;51.970;4.614;2022-08-03T14:49:43;27.10;64.10
17495;DHT22;8864;51.970;4.614;2022-08-03T14:52:09;27.10;64.00
17495;DHT22;8864;51.970;4.614;2022-08-03T14:54:36;27.10;64.00
17495;DHT22;8864;51.970;4.614;2022-08-03T14:57:03;27.10;64.10
17495;DHT22;8864;51.970;4.614;2022-08-03T14:59:30;27.10;64.00
17495;DHT22;8864;51.970;4.614;2022-08-03T15:01:57;27.10;64.10
17495;DHT22;8864;51.970;4.614;2022-08-03T15:04:23;27.10;64.00
17495;DHT22;8864;51.970;4.614;2022-08-03T15:06:52;27.20;64.00
17495;DHT22;8864;51.970;4.614;2022-08-03T15:09:18;27.20;64.00
17495;DHT22;8864;51.970;4.614;2022-08-03T15:11:45;27.20;64.00
17495;DHT22;8864;51.970;4.614;2022-08-03T15:14:12;27.20;64.00
17495;DHT22;8864;51.970;4.614;2022-08-03T15:16:39;27.20;64.00
17495;DHT22;8864;51.970;4.614;2022-08-03T15:19:06;27.20;64.00
17495;DHT22;8864;51.970;4.614;2022-08-03T15:21:32;27.20;64.00
17495;DHT22;8864;51.970;4.614;2022-08-03T15:24:00;27.20;63.90
17495;DHT22;8864;51.970;4.614;2022-08-03T15:26:27;27.30;64.20
17495;DHT22;8864;51.970;4.614;2022-08-03T15:28:54;27.30;63.80
17495;DHT22;8864;51.970;4.614;2022-08-03T15:31:21;27.30;63.80
17495;DHT22;8864;51.970;4.614;2022-08-03T15:33:48;27.30;63.80
17495;DHT22;8864;51.970;4.614;2022-08-03T15:36:16;27.30;63.80
17495;DHT22;8864;51.970;4.614;2022-08-03T15:38:42;27.30;63.90
17495;DHT22;8864;51.970;4.614;2022-08-03T15:41:11;27.30;63.90
17495;DHT22;8864;51.970;4.614;2022-08-03T15:43:37;27.30;63.90
17495;DHT22;8864;51.970;4.614;2022-08-03T15:46:04;27.40;64.10
17495;DHT22;8864;51.970;4.614;2022-08-03T15:48:31;27.40;64.10
17495;DHT22;8864;51.970;4.614;2022-08-03T15:50:58;27.40;64.00
17495;DHT22;8864;51.970;4.614;2022-08-03T15:53:25;27.40;63.80
17495;DHT22;8864;51.970;4.614;2022-08-03T15:55:52;27.50;63.80
17495;DHT22;8864;51.970;4.614;2022-08-03T15:58:20;27.50;63.80
17495;DHT22;8864;51.970;4.614;2022-08-03T16:00:47;27.50;63.60